Time;durP1;ratioP1;P1;durP2;ratioP2;P2;SDS_P1;SDS_P2;PMS_P1;PMS_P2;Temp;Humidity;BMP_temperature;BMP_pressure;BME280_temperature;BME280_humidity;BME280_pressure;Samples;Min_cycle;Max_cycle;Signal;HPM_P1;HPM_P2
2022/02/27 00:04:43;;;;;;;15.85;6.70;;;;;;;2.96;85.58;102470.12;713134;1174;115516;-77
2022/02/27 00:19:45;;;;;;;33.33;16.03;;;;;;;2.88;84.96;102487.58;713029;1174;115265;-78
2022/02/27 00:34:49;;;;;;;20.00;8.55;;;;;;;2.96;84.87;102487.42;712855;1173;115123;-78
2022/02/27 00:49:52;;;;;;;19.50;8.28;;;;;;;2.85;85.66;102500.62;713472;1174;114799;-78
2022/02/27 01:04:57;;;;;;;16.40;7.55;;;;;;;2.68;85.98;102505.27;713022;1173;115425;-78
2022/02/27 01:20:02;;;;;;;18.98;9.20;;;;;;;2.70;85.54;102516.47;712945;1173;115624;-77
2022/02/27 01:35:07;;;;;;;17.80;8.40;;;;;;;2.50;85.26;102518.53;713109;1173;114636;-78
2022/02/27 01:50:10;;;;;;;16.38;7.55;;;;;;;2.28;85.72;102509.45;713017;1173;114498;-77
2022/02/27 02:05:16;;;;;;;18.73;7.80;;;;;;;2.05;85.58;102521.06;713191;1174;115219;-80
2022/02/27 02:20:20;;;;;;;16.68;8.18;;;;;;;2.03;85.44;102525.39;714391;1174;114682;-77
2022/02/27 02:35:26;;;;;;;35.07;12.20;;;;;;;1.82;85.34;102514.53;713653;1174;115084;-78
2022/02/27 02:50:29;;;;;;;19.83;8.73;;;;;;;1.67;85.12;102504.41;713128;1174;115038;-79
2022/02/27 03:05:32;;;;;;;16.13;7.40;;;;;;;1.40;85.10;102522.05;713016;1173;114930;-78
2022/02/27 03:20:37;;;;;;;12.33;4.75;;;;;;;1.26;86.04;102509.29;713055;1173;115732;-78
2022/02/27 03:35:42;;;;;;;10.23;5.07;;;;;;;1.16;86.05;102516.33;713276;1174;114756;-78
2022/02/27 03:50:46;;;;;;;15.03;6.00;;;;;;;1.00;85.49;102514.80;713130;1174;114977;-79
2022/02/27 04:05:50;;;;;;;12.50;5.55;;;;;;;0.99;85.44;102529.46;713305;1174;115724;-78
2022/02/27 04:20:52;;;;;;;22.85;9.18;;;;;;;0.93;85.53;102526.94;713083;1174;114723;-79
2022/02/27 04:35:54;;;;;;;17.95;7.20;;;;;;;0.78;85.26;102538.32;713249;1174;114149;-80
2022/02/27 04:50:56;;;;;;;11.35;6.25;;;;;;;0.64;84.63;102546.20;713054;1174;114468;-78
2022/02/27 05:06:01;;;;;;;19.83;9.43;;;;;;;0.57;83.92;102556.61;713405;1174;114594;-78
2022/02/27 05:21:04;;;;;;;33.23;14.37;;;;;;;0.42;83.65;102580.87;713400;1174;114657;-78
2022/02/27 05:36:06;;;;;;;52.95;20.15;;;;;;;0.25;84.01;102593.91;713327;1174;115836;-77
2022/02/27 05:51:08;;;;;;;85.07;28.43;;;;;;;0.20;83.92;102606.00;713840;1174;114375;-77
2022/02/27 06:06:11;;;;;;;81.40;36.63;;;;;;;0.32;84.51;102595.59;713287;1174;115239;-78
2022/02/27 06:21:13;;;;;;;215.60;70.75;;;;;;;0.36;83.75;102607.61;713422;1174;116146;-78
2022/02/27 06:36:15;;;;;;;55.90;23.20;;;;;;;0.71;84.31;102613.33;713796;1174;115058;-78
2022/02/27 06:51:17;;;;;;;125.53;46.80;;;;;;;1.99;84.91;102620.41;713316;1173;115881;-75
2022/02/27 07:06:20;;;;;;;33.07;15.90;;;;;;;3.30;84.17;102638.03;713233;1174;114948;-74
2022/02/27 07:21:22;;;;;;;87.65;38.40;;;;;;;3.98;83.24;102649.55;713701;1174;115150;-74
2022/02/27 07:36:24;;;;;;;17.13;8.40;;;;;;;4.82;83.05;102656.20;714211;1173;114838;-76
2022/02/27 07:51:27;;;;;;;13.93;6.45;;;;;;;5.11;80.92;102664.98;714521;1174;114058;-75
2022/02/27 08:06:32;;;;;;;43.77;19.23;;;;;;;5.97;79.62;102669.47;719045;1174;115302;-76
2022/02/27 08:21:35;;;;;;;210.70;67.65;;;;;;;6.82;78.51;102661.56;718954;1174;115316;-74
2022/02/27 08:36:39;;;;;;;64.90;30.47;;;;;;;7.23;76.32;102657.53;714875;1174;114640;-81
2022/02/27 08:51:45;;;;;;;64.48;22.85;;;;;;;8.18;75.50;102655.66;715156;1174;115098;-77
2022/02/27 09:06:48;;;;;;;78.13;25.63;;;;;;;8.43;71.75;102654.66;714317;1174;114276;-74
2022/02/27 09:21:50;;;;;;;33.80;14.95;;;;;;;9.21;69.39;102658.36;714483;1173;114579;-73
2022/02/27 09:36:52;;;;;;;25.60;13.00;;;;;;;9.36;65.20;102654.19;714306;1174;114926;-75
2022/02/27 09:51:59;;;;;;;63.40;30.10;;;;;;;9.30;65.21;102652.70;714827;1174;115155;-75
2022/02/27 10:07:08;;;;;;;25.15;12.00;;;;;;;10.05;64.23;102636.99;715436;1174;115410;-75
2022/02/27 10:22:12;;;;;;;16.00;6.65;;;;;;;9.37;62.19;102634.94;714364;1174;114947;-75
2022/02/27 10:37:18;;;;;;;23.67;11.30;;;;;;;10.03;61.33;102630.13;714665;1174;118238;-75
2022/02/27 10:52:30;;;;;;;9.28;4.90;;;;;;;10.66;59.48;102632.27;714200;1173;115085;-76
2022/02/27 11:07:35;;;;;;;7.58;3.98;;;;;;;11.78;58.80;102630.67;714534;1174;113987;-76
2022/02/27 11:22:40;;;;;;;12.68;7.00;;;;;;;11.52;55.21;102621.63;714868;1173;114008;-76
2022/02/27 11:37:51;;;;;;;11.63;4.65;;;;;;;11.99;54.41;102604.13;714012;1174;114183;-76
2022/02/27 11:52:54;;;;;;;14.68;8.85;;;;;;;11.91;53.27;102590.55;713963;1174;115502;-76
2022/02/27 12:07:59;;;;;;;49.03;20.50;;;;;;;12.34;51.86;102587.23;713898;1173;115760;-77
2022/02/27 12:23:01;;;;;;;11.35;5.28;;;;;;;13.24;51.73;102567.69;713858;1173;115131;-76
2022/02/27 12:38:13;;;;;;;35.35;13.63;;;;;;;13.55;50.39;102559.63;713763;1174;115757;-77
2022/02/27 12:53:17;;;;;;;84.63;26.03;;;;;;;14.51;48.11;102546.20;713700;1173;114466;-77
2022/02/27 13:08:20;;;;;;;30.40;13.40;;;;;;;14.09;48.25;102533.17;714059;1174;116459;-76
2022/02/27 13:23:31;;;;;;;21.80;7.60;;;;;;;14.36;47.62;102539.33;713856;1174;115638;-76
2022/02/27 13:38:33;;;;;;;36.75;11.13;;;;;;;16.28;46.16;102539.64;713652;1174;114772;-77
2022/02/27 13:53:35;;;;;;;23.83;9.90;;;;;;;23.54;41.28;102540.61;713917;1174;115056;-77
2022/02/27 14:08:43;;;;;;;38.63;14.80;;;;;;;24.66;38.85;102531.90;714148;1174;114607;-76
2022/02/27 14:23:58;;;;;;;25.53;11.60;;;;;;;26.08;37.89;102518.94;713593;1174;114688;-76
2022/02/27 14:39:02;;;;;;;35.03;14.30;;;;;;;26.39;37.56;102520.62;713388;1173;114812;-76
2022/02/27 14:54:05;;;;;;;24.13;10.00;;;;;;;25.72;35.60;102502.64;713296;1174;115477;-76
2022/02/27 15:09:09;;;;;;;25.00;13.73;;;;;;;21.70;36.24;102500.88;713542;1174;115241;-75
2022/02/27 15:24:14;;;;;;;33.08;15.83;;;;;;;15.93;39.71;102492.90;714358;1174;115446;-77
2022/02/27 15:39:17;;;;;;;47.70;21.20;;;;;;;18.15;40.74;102494.63;715051;1174;115196;-77
2022/02/27 15:54:20;;;;;;;40.08;21.53;;;;;;;19.64;39.24;102493.86;714395;1174;115299;-73
2022/02/27 16:09:22;;;;;;;51.23;26.25;;;;;;;15.66;39.94;102491.32;713765;1174;116008;-74
2022/02/27 16:24:26;;;;;;;59.07;28.20;;;;;;;10.63;43.36;102509.06;713864;1174;115891;-75
2022/02/27 16:39:29;;;;;;;75.10;28.58;;;;;;;8.43;46.20;102514.28;713922;1173;114198;-74
2022/02/27 16:54:31;;;;;;;103.08;31.80;;;;;;;7.22;47.31;102512.23;713654;1174;115498;-74
2022/02/27 17:09:33;;;;;;;195.28;81.30;;;;;;;6.54;48.80;102515.58;713737;1173;115210;-74
2022/02/27 17:24:36;;;;;;;389.43;152.10;;;;;;;5.97;50.06;102517.50;713585;1174;115151;-73
2022/02/27 17:39:38;;;;;;;512.13;203.93;;;;;;;5.91;51.14;102515.09;713765;1174;115003;-74
2022/02/27 17:54:40;;;;;;;418.83;152.55;;;;;;;5.51;52.26;102509.41;714087;1174;115707;-74
2022/02/27 18:09:43;;;;;;;301.33;99.08;;;;;;;4.97;53.77;102526.63;713850;1174;116200;-72
2022/02/27 18:24:46;;;;;;;507.33;182.48;;;;;;;4.64;53.71;102527.52;713589;1174;115157;-71
2022/02/27 18:39:49;;;;;;;544.75;178.25;;;;;;;4.31;53.88;102529.28;713637;1174;115921;-71
2022/02/27 18:54:51;;;;;;;159.55;57.45;;;;;;;3.95;55.44;102526.73;713803;1174;114859;-72
2022/02/27 19:09:54;;;;;;;232.88;84.73;;;;;;;3.65;55.17;102523.96;713970;1173;115813;-71
2022/02/27 19:24:56;;;;;;;205.40;72.07;;;;;;;3.35;57.02;102509.94;713768;1174;114341;-74
2022/02/27 19:39:59;;;;;;;127.98;45.98;;;;;;;3.28;57.18;102517.00;713871;1174;114375;-72
2022/02/27 19:55:03;;;;;;;373.03;116.83;;;;;;;3.10;57.54;102508.73;714459;1174;114348;-77
2022/02/27 20:25:27;;;;;;;235.85;77.05;;;;;;;3.02;57.90;102520.98;713859;1173;115914;-72
2022/02/27 20:40:31;;;;;;;568.38;157.10;;;;;;;2.90;59.23;102510.88;716024;1174;114571;-79
2022/02/27 20:55:34;;;;;;;198.70;60.08;;;;;;;2.49;58.94;102522.03;714470;1174;114527;-77
2022/02/27 21:10:37;;;;;;;768.25;243.93;;;;;;;2.38;60.26;102529.13;714335;1174;114451;-77
2022/02/27 21:25:39;;;;;;;177.48;56.68;;;;;;;2.16;60.40;102539.00;713995;1174;114614;-78
2022/02/27 21:40:41;;;;;;;169.53;55.27;;;;;;;2.20;61.27;102524.27;714369;1174;114853;-78
2022/02/27 21:55:44;;;;;;;139.63;48.40;;;;;;;2.50;62.27;102523.72;714446;1174;114240;-79
2022/02/27 22:10:46;;;;;;;87.98;32.58;;;;;;;2.75;62.74;102512.05;714168;1174;114776;-79
2022/02/27 22:25:49;;;;;;;91.27;35.87;;;;;;;2.93;63.26;102501.31;714688;1174;115458;-79
2022/02/27 22:40:53;;;;;;;102.83;36.87;;;;;;;3.00;63.49;102500.28;714394;1174;114885;-79
2022/02/27 22:55:58;;;;;;;94.03;28.27;;;;;;;3.08;63.69;102497.53;715600;1174;114253;-80
2022/02/27 23:11:03;;;;;;;97.60;34.40;;;;;;;3.14;63.84;102493.94;714688;1174;114856;-80
2022/02/27 23:26:08;;;;;;;66.98;24.30;;;;;;;3.34;64.52;102498.72;713843;1174;114891;-78
2022/02/27 23:41:10;;;;;;;54.27;19.53;;;;;;;3.38;64.02;102496.88;713445;1174;114785;-71
2022/02/27 23:56:13;;;;;;;59.35;21.85;;;;;;;3.38;63.60;102502.08;713604;1173;114856;-77
